Time;durP1;ratioP1;P1;durP2;ratioP2;P2;SDS_P1;SDS_P2;PMS_P1;PMS_P2;Temp;Humidity;BMP_temperature;BMP_pressure;BME280_temperature;BME280_humidity;BME280_pressure;Samples;Min_cycle;Max_cycle;Signal;HPM_P1;HPM_P2
2022/11/03 00:02:28;;;;;;;10.60;6.30;;;;;;;10.44;73.85;97374.82;105148;1289;22467;-83
2022/11/03 00:06:03;;;;;;;9.20;5.40;;;;;;;10.35;74.05;97378.80;105065;1287;22459;-82
2022/11/03 00:07:51;;;;;;;9.50;5.20;;;;;;;10.28;74.22;97378.07;105092;1289;24248;-83
2022/11/03 00:10:22;;;;;;;12.50;6.50;;;;;;;10.27;74.36;97378.85;105126;1284;22539;-83
2022/11/03 00:12:55;;;;;;;11.00;6.00;;;;;;;10.23;74.53;97375.96;105143;1281;24183;-83
2022/11/03 00:15:26;;;;;;;11.80;5.40;;;;;;;10.18;74.57;97374.59;105093;1302;22472;-83
2022/11/03 00:17:57;;;;;;;11.40;5.60;;;;;;;10.13;74.68;97372.17;105147;1290;22471;-83
2022/11/03 00:20:28;;;;;;;10.50;5.00;;;;;;;10.08;74.76;97376.13;105128;1304;22485;-83
2022/11/03 00:22:59;;;;;;;8.30;4.60;;;;;;;10.01;74.88;97380.79;105096;1305;22460;-82
2022/11/03 00:25:30;;;;;;;12.80;5.30;;;;;;;9.91;75.01;97380.15;105072;1305;22459;-83
2022/11/03 00:28:01;;;;;;;7.80;5.10;;;;;;;9.82;75.39;97382.61;105118;1297;22472;-83
2022/11/03 00:30:32;;;;;;;10.00;5.50;;;;;;;9.74;75.49;97390.51;105141;1295;25924;-82
2022/11/03 00:33:03;;;;;;;9.40;4.40;;;;;;;9.66;75.85;97398.06;105114;1297;23815;-82
2022/11/03 00:35:34;;;;;;;10.40;5.00;;;;;;;9.63;76.19;97398.78;105065;1303;27658;-83
2022/11/03 00:38:05;;;;;;;11.30;5.20;;;;;;;9.62;76.38;97396.03;105029;1300;22547;-82
2022/11/03 00:40:36;;;;;;;11.50;5.20;;;;;;;9.62;76.53;97395.75;105053;1305;22491;-83
2022/11/03 00:43:10;;;;;;;10.30;5.20;;;;;;;9.63;76.46;97392.91;105034;1303;22483;-83
2022/11/03 00:45:41;;;;;;;10.70;4.80;;;;;;;9.67;76.51;97390.39;105042;1281;24266;-83
2022/11/03 00:48:31;;;;;;;9.70;4.80;;;;;;;9.68;76.32;97393.15;105091;1305;24253;-83
2022/11/03 00:51:16;;;;;;;8.10;4.20;;;;;;;9.62;76.18;97391.05;105018;1305;22638;-83
2022/11/03 00:53:49;;;;;;;12.70;4.60;;;;;;;9.54;76.21;97379.59;105021;1293;22596;-83
2022/11/03 00:56:22;;;;;;;9.80;4.20;;;;;;;9.52;76.10;97384.87;105066;1304;26488;-83
2022/11/03 00:58:54;;;;;;;9.40;4.20;;;;;;;9.52;75.97;97383.75;105115;1281;25466;-83
2022/11/03 01:01:30;;;;;;;8.70;4.40;;;;;;;9.52;75.84;97382.91;105135;1305;22463;-83
2022/11/03 01:06:53;;;;;;;8.00;4.10;;;;;;;9.40;75.73;97384.02;105084;1288;22512;-83
2022/11/03 01:09:26;;;;;;;11.10;4.40;;;;;;;9.31;75.73;97384.21;105197;1304;22458;-83
2022/11/03 01:12:04;;;;;;;10.70;4.10;;;;;;;9.19;75.82;97383.63;105114;1298;22472;-83
2022/11/03 01:14:37;;;;;;;9.30;4.40;;;;;;;9.14;76.15;97388.06;105125;1296;22467;-82
2022/11/03 01:17:10;;;;;;;10.50;5.00;;;;;;;9.06;76.21;97392.70;105184;1290;25203;-83
2022/11/03 01:19:41;;;;;;;8.90;4.20;;;;;;;8.95;76.29;97390.67;105135;1305;23524;-83
2022/11/03 01:22:13;;;;;;;12.50;5.10;;;;;;;8.87;76.54;97391.02;105140;1305;26011;-83
2022/11/03 01:24:45;;;;;;;11.70;4.70;;;;;;;8.82;76.96;97392.73;105070;1287;39950;-82
2022/11/03 01:27:19;;;;;;;10.20;4.80;;;;;;;8.78;76.71;97395.55;105153;1305;22497;-83
2022/11/03 01:29:50;;;;;;;11.40;4.50;;;;;;;8.61;76.69;97398.67;105160;1290;22490;-83
2022/11/03 01:32:23;;;;;;;10.80;4.30;;;;;;;8.49;77.13;97396.69;105121;1281;22457;-83
2022/11/03 01:34:54;;;;;;;10.20;4.70;;;;;;;8.39;77.53;97397.24;105106;1279;27940;-83
2022/11/03 01:37:26;;;;;;;8.90;4.40;;;;;;;8.32;77.50;97398.71;105135;1304;23150;-83
2022/11/03 01:39:57;;;;;;;9.90;4.60;;;;;;;8.20;77.53;97401.77;105173;1305;24289;-83
2022/11/03 01:42:28;;;;;;;7.60;3.90;;;;;;;8.09;77.79;97402.04;105135;1305;22466;-83
2022/11/03 01:45:00;;;;;;;8.10;3.50;;;;;;;7.93;78.53;97401.91;105095;1305;36501;-83
2022/11/03 01:47:34;;;;;;;7.00;4.00;;;;;;;7.85;78.85;97404.25;105184;1304;22471;-83
2022/11/03 01:50:10;;;;;;;9.20;4.50;;;;;;;7.79;79.12;97401.91;105118;1287;22507;-83
2022/11/03 01:52:44;;;;;;;8.20;4.00;;;;;;;7.79;79.47;97401.52;105153;1296;25345;-83
2022/11/03 01:55:19;;;;;;;6.10;3.80;;;;;;;7.79;79.54;97402.28;105060;1281;22480;-83
2022/11/03 01:58:02;;;;;;;9.10;4.20;;;;;;;7.64;79.12;97400.04;105164;1297;22546;-83
2022/11/03 02:00:33;;;;;;;9.70;4.20;;;;;;;7.53;79.72;97401.13;105161;1298;22462;-83
2022/11/03 02:03:05;;;;;;;8.90;4.30;;;;;;;7.52;80.00;97395.71;105124;1297;22429;-83
2022/11/03 02:05:38;;;;;;;9.40;4.70;;;;;;;7.37;80.23;97394.95;105077;1297;22476;-83
2022/11/03 02:08:14;;;;;;;8.20;4.20;;;;;;;7.27;80.45;97394.13;105085;1305;22462;-83
2022/11/03 02:10:49;;;;;;;9.40;4.10;;;;;;;7.17;80.91;97392.06;105142;1305;22510;-83
2022/11/03 02:13:24;;;;;;;8.60;4.90;;;;;;;7.16;81.31;97389.98;105092;1304;22479;-83
2022/11/03 02:15:59;;;;;;;9.10;4.50;;;;;;;7.24;81.60;97386.48;105079;1282;22487;-83
2022/11/03 02:18:33;;;;;;;11.40;4.90;;;;;;;7.39;81.80;97387.38;105135;1287;25312;-83
2022/11/03 02:21:12;;;;;;;9.20;4.30;;;;;;;7.50;81.56;97388.61;105151;1298;22460;-82
2022/11/03 02:23:49;;;;;;;8.70;4.30;;;;;;;7.55;81.38;97389.12;105112;1305;22494;-83
2022/11/03 02:26:20;;;;;;;11.40;5.30;;;;;;;7.60;81.32;97389.11;105077;1287;25217;-83
2022/11/03 02:28:51;;;;;;;12.70;4.60;;;;;;;7.65;81.47;97390.08;105164;1305;22839;-83
2022/11/03 02:31:28;;;;;;;11.30;5.30;;;;;;;7.70;81.20;97392.63;105131;1304;25307;-83
2022/11/03 02:34:07;;;;;;;9.00;4.50;;;;;;;7.74;80.75;97389.12;105134;1289;22470;-83
2022/11/03 02:36:43;;;;;;;9.20;4.60;;;;;;;7.74;80.47;97392.28;105114;1305;22465;-83
2022/11/03 02:39:17;;;;;;;8.10;4.50;;;;;;;7.71;80.37;97393.48;105119;1305;22465;-83
2022/11/03 02:41:50;;;;;;;8.90;3.80;;;;;;;7.67;79.99;97394.39;105027;1297;23516;-83
2022/11/03 02:44:24;;;;;;;7.80;4.40;;;;;;;7.61;80.23;97395.04;105060;1287;22482;-83
2022/11/03 02:47:01;;;;;;;8.10;4.90;;;;;;;7.58;80.37;97390.27;105146;1302;31498;-83
2022/11/03 02:49:37;;;;;;;7.40;4.20;;;;;;;7.52;80.45;97390.87;105212;1303;22471;-83
2022/11/03 02:52:35;;;;;;;9.30;4.60;;;;;;;7.36;80.34;97385.75;105172;1295;22451;-83
2022/11/03 02:55:15;;;;;;;9.40;4.00;;;;;;;7.24;81.30;97382.68;105096;1299;22475;-83
2022/11/03 02:57:51;;;;;;;12.20;4.60;;;;;;;7.19;81.86;97386.24;105048;1290;22619;-83
2022/11/03 03:00:22;;;;;;;8.10;4.40;;;;;;;7.15;82.02;97386.48;105058;1289;22473;-83
2022/11/03 03:02:59;;;;;;;8.40;4.10;;;;;;;7.11;82.29;97389.73;105060;1299;25348;-83
2022/11/03 03:05:34;;;;;;;12.60;5.00;;;;;;;7.14;82.76;97392.70;105020;1291;22500;-83
2022/11/03 03:08:12;;;;;;;7.60;4.00;;;;;;;7.20;82.78;97392.48;105074;1290;22497;-82
2022/11/03 03:10:46;;;;;;;9.30;4.60;;;;;;;7.07;82.00;97393.63;105028;1286;22516;-83
2022/11/03 03:13:21;;;;;;;11.70;4.50;;;;;;;7.01;82.60;97398.58;105083;1294;22485;-82
2022/11/03 03:16:03;;;;;;;8.80;3.90;;;;;;;6.97;82.58;97394.34;105047;1298;25343;-82
2022/11/03 03:18:48;;;;;;;8.70;4.20;;;;;;;6.84;82.66;97400.32;105162;1290;22462;-82
2022/11/03 03:21:23;;;;;;;10.80;4.90;;;;;;;6.82;83.57;97397.70;105110;1304;22462;-82
2022/11/03 03:24:01;;;;;;;8.80;3.90;;;;;;;6.94;84.06;97397.09;105056;1288;22479;-82
2022/11/03 03:26:36;;;;;;;10.20;4.60;;;;;;;6.93;83.93;97394.06;105021;1287;25332;-83
2022/11/03 03:29:11;;;;;;;10.00;4.30;;;;;;;6.93;84.43;97399.17;105048;1305;22463;-83
2022/11/03 03:31:49;;;;;;;9.10;4.60;;;;;;;7.01;84.57;97399.73;105033;1290;22462;-83
2022/11/03 03:34:23;;;;;;;12.10;4.40;;;;;;;7.09;84.41;97401.30;105046;1290;22488;-82
2022/11/03 03:36:58;;;;;;;6.10;4.10;;;;;;;7.15;84.40;97396.94;105077;1305;40289;-82
2022/11/03 03:39:37;;;;;;;9.20;4.70;;;;;;;7.11;84.48;97395.81;105068;1280;22487;-83
2022/11/03 03:42:11;;;;;;;11.10;4.90;;;;;;;7.09;84.60;97401.26;105057;1297;22486;-83
2022/11/03 03:44:45;;;;;;;8.90;5.20;;;;;;;7.12;84.49;97400.05;104996;1305;22656;-82
2022/11/03 03:47:22;;;;;;;12.20;4.80;;;;;;;7.07;84.35;97401.55;105178;1281;25385;-83
2022/11/03 03:49:53;;;;;;;8.80;4.20;;;;;;;6.96;84.63;97397.52;105056;1306;24756;-83
2022/11/03 03:52:25;;;;;;;9.70;4.40;;;;;;;6.80;84.54;97397.77;105046;1287;22582;-83
2022/11/03 03:54:57;;;;;;;7.90;4.20;;;;;;;6.62;83.96;97399.23;105017;1287;22467;-83
2022/11/03 03:57:31;;;;;;;7.20;4.20;;;;;;;6.38;83.75;97400.34;105042;1305;22677;-83
2022/11/03 04:00:03;;;;;;;10.00;4.40;;;;;;;6.26;84.31;97400.82;105117;1293;25464;-82
2022/11/03 04:02:34;;;;;;;9.20;4.50;;;;;;;6.20;85.03;97397.70;105064;1304;22608;-82
2022/11/03 04:05:06;;;;;;;11.30;4.80;;;;;;;6.26;85.68;97396.72;105020;1290;25376;-82
2022/11/03 04:07:49;;;;;;;9.70;4.80;;;;;;;6.37;85.71;97398.15;105042;1287;25446;-82
2022/11/03 04:10:22;;;;;;;9.10;4.40;;;;;;;6.32;85.05;97400.26;105074;1289;22529;-82
2022/11/03 04:24:12;;;;;;;11.20;5.00;;;;;;;5.71;85.87;97387.04;105047;1305;22462;-83
2022/11/03 04:26:43;;;;;;;9.70;5.70;;;;;;;5.63;85.39;97386.80;105109;1296;22475;-83
2022/11/03 04:29:14;;;;;;;10.70;5.70;;;;;;;5.51;85.30;97386.71;105153;1304;25343;-83
2022/11/03 04:31:46;;;;;;;10.20;5.10;;;;;;;5.44;85.87;97388.05;105152;1303;22470;-83
2022/11/03 04:34:17;;;;;;;10.70;4.80;;;;;;;5.42;86.39;97384.02;105107;1298;22514;-83
2022/11/03 04:36:51;;;;;;;10.40;4.30;;;;;;;5.42;87.20;97380.44;104998;1302;33890;-83
2022/11/03 04:39:22;;;;;;;10.40;4.30;;;;;;;5.56;88.09;97376.20;105028;1296;22469;-83
2022/11/03 04:41:53;;;;;;;9.00;4.60;;;;;;;5.67;88.24;97371.54;105032;1306;22548;-83
2022/11/03 04:44:24;;;;;;;8.40;4.50;;;;;;;5.74;88.53;97367.20;105009;1310;22479;-83
2022/11/03 04:46:56;;;;;;;8.80;3.80;;;;;;;5.73;87.85;97366.49;105070;1301;24251;-83
2022/11/03 04:49:28;;;;;;;10.20;4.70;;;;;;;5.58;87.64;97375.84;105040;1296;22532;-83
2022/11/03 04:51:59;;;;;;;11.70;4.70;;;;;;;5.52;88.36;97376.23;105031;1291;24275;-82
2022/11/03 04:54:31;;;;;;;10.50;4.60;;;;;;;5.51;88.77;97374.06;104995;1295;22527;-82
2022/11/03 04:57:08;;;;;;;8.70;4.70;;;;;;;5.58;89.43;97375.67;105146;1306;22665;-83
2022/11/03 04:59:43;;;;;;;8.20;4.90;;;;;;;5.67;89.80;97377.00;105118;1301;22475;-83
2022/11/03 05:02:18;;;;;;;10.80;4.60;;;;;;;5.67;89.46;97381.16;105157;1286;22480;-82
2022/11/03 05:04:49;;;;;;;11.50;5.10;;;;;;;5.61;89.92;97380.59;105097;1306;25563;-82
2022/11/03 05:07:29;;;;;;;10.10;5.20;;;;;;;5.68;90.38;97380.17;105170;1296;22453;-82
2022/11/03 05:10:01;;;;;;;10.90;5.20;;;;;;;5.76;90.59;97377.89;105137;1296;22545;-83
2022/11/03 05:12:33;;;;;;;11.80;5.30;;;;;;;5.77;90.23;97376.39;105108;1294;22469;-83
2022/11/03 05:15:23;;;;;;;9.20;5.00;;;;;;;5.76;90.46;97376.44;105015;1306;25718;-82
2022/11/03 05:17:55;;;;;;;10.30;5.00;;;;;;;5.80;90.47;97376.30;104783;1297;322821;-82
2022/11/03 05:20:35;;;;;;;7.80;4.60;;;;;;;5.79;89.97;97378.02;105047;1290;22528;-82
2022/11/03 05:23:06;;;;;;;10.50;4.80;;;;;;;5.72;89.68;97376.48;105059;1305;22459;-83
2022/11/03 05:25:41;;;;;;;9.60;4.70;;;;;;;5.63;89.48;97381.90;105024;1296;22547;-82
2022/11/03 05:28:20;;;;;;;9.90;5.50;;;;;;;5.48;89.09;97383.05;105043;1305;22466;-83
2022/11/03 05:30:52;;;;;;;8.80;5.00;;;;;;;5.38;89.87;97385.92;105059;1310;24122;-82
2022/11/03 05:33:31;;;;;;;13.70;4.70;;;;;;;5.49;91.12;97382.30;105027;1310;22480;-82
2022/11/03 05:36:08;;;;;;;10.30;4.50;;;;;;;5.68;91.43;97380.98;105044;1304;22590;-82
2022/11/03 05:38:39;;;;;;;13.30;5.70;;;;;;;5.81;91.62;97374.86;105031;1310;22520;-82
2022/11/03 05:41:16;;;;;;;13.60;5.60;;;;;;;5.92;91.54;97371.81;105025;1286;22965;-83
2022/11/03 05:43:52;;;;;;;10.50;4.70;;;;;;;5.99;91.37;97372.80;105069;1297;22474;-82
2022/11/03 05:46:26;;;;;;;10.80;5.40;;;;;;;5.98;90.68;97376.05;105082;1306;23806;-82
2022/11/03 05:48:58;;;;;;;10.90;5.30;;;;;;;5.98;90.56;97375.67;105145;1304;22537;-82
2022/11/03 05:51:34;;;;;;;11.20;5.60;;;;;;;6.02;90.56;97376.55;105137;1302;22464;-82
2022/11/03 05:54:10;;;;;;;12.90;5.50;;;;;;;6.28;90.75;97376.38;105078;1290;25522;-82
2022/11/03 05:56:41;;;;;;;9.40;4.90;;;;;;;6.63;90.56;97376.40;105070;1300;22481;-82
2022/11/03 05:59:19;;;;;;;11.00;5.90;;;;;;;7.00;90.34;97376.21;105123;1302;22486;-82
2022/11/03 06:01:51;;;;;;;11.00;5.70;;;;;;;7.43;89.78;97375.73;105123;1296;22469;-82
2022/11/03 06:04:29;;;;;;;10.20;5.20;;;;;;;7.84;89.10;97374.95;105120;1297;22484;-82
2022/11/03 06:07:04;;;;;;;9.40;4.90;;;;;;;8.33;88.53;97373.52;105066;1311;22486;-82
2022/11/03 06:09:35;;;;;;;7.70;4.20;;;;;;;8.90;87.86;97371.27;105112;1287;25309;-83
2022/11/03 06:12:16;;;;;;;11.00;5.40;;;;;;;9.52;86.74;97374.65;105126;1298;22568;-83
2022/11/03 06:14:48;;;;;;;11.60;5.20;;;;;;;10.15;85.43;97372.09;105070;1287;22498;-83
2022/11/03 06:17:24;;;;;;;11.30;4.30;;;;;;;10.70;84.10;97371.79;105037;1302;25367;-83
2022/11/03 06:19:57;;;;;;;7.90;4.10;;;;;;;11.13;82.55;97372.02;105052;1297;22557;-83
2022/11/03 06:22:32;;;;;;;8.70;4.10;;;;;;;11.42;80.81;97370.62;104969;1297;22469;-83
2022/11/03 06:25:14;;;;;;;11.10;4.90;;;;;;;11.58;79.99;97371.43;104939;1303;25238;-83
2022/11/03 06:27:45;;;;;;;8.50;4.80;;;;;;;11.51;79.00;97370.15;105012;1294;22517;-83
2022/11/03 06:30:24;;;;;;;8.40;4.80;;;;;;;11.79;78.64;97369.80;105010;1305;22480;-83
2022/11/03 06:32:58;;;;;;;9.60;5.10;;;;;;;12.16;78.27;97368.73;105048;1296;22617;-83
2022/11/03 06:35:29;;;;;;;11.30;5.30;;;;;;;12.46;76.52;97366.63;104945;1295;23392;-83
2022/11/03 06:38:01;;;;;;;9.10;5.30;;;;;;;12.23;75.21;97367.66;105091;1304;22476;-83
2022/11/03 06:40:37;;;;;;;7.70;4.80;;;;;;;12.23;74.65;97362.14;105118;1304;24228;-83
2022/11/03 06:43:20;;;;;;;9.20;5.50;;;;;;;12.39;74.34;97368.37;105095;1294;22455;-83
2022/11/03 06:45:54;;;;;;;9.20;4.30;;;;;;;12.71;73.51;97367.92;105000;1304;22956;-82
2022/11/03 06:48:29;;;;;;;8.10;4.20;;;;;;;13.04;72.49;97369.56;105052;1305;22474;-83
2022/11/03 06:51:01;;;;;;;9.70;4.90;;;;;;;13.29;71.63;97371.05;105075;1305;22489;-82
2022/11/03 06:53:34;;;;;;;8.10;4.50;;;;;;;13.47;70.86;97370.60;105040;1305;22486;-83
2022/11/03 06:56:12;;;;;;;10.00;5.00;;;;;;;13.75;70.62;97370.59;105086;1296;22461;-82
2022/11/03 06:58:47;;;;;;;8.30;4.40;;;;;;;14.22;69.66;97373.58;105160;1288;22474;-83
2022/11/03 07:01:22;;;;;;;9.40;5.10;;;;;;;14.54;69.13;97371.60;105188;1299;22469;-83
2022/11/03 07:03:58;;;;;;;8.90;4.90;;;;;;;15.12;68.58;97371.44;105226;1292;22506;-83
2022/11/03 07:06:32;;;;;;;9.60;4.90;;;;;;;15.47;66.95;97371.22;105045;1303;25170;-82
2022/11/03 07:09:06;;;;;;;10.30;5.60;;;;;;;15.91;66.72;97369.45;105174;1299;23046;-82
2022/11/03 07:11:43;;;;;;;10.70;5.30;;;;;;;16.35;65.28;97371.73;105173;1303;24291;-82
2022/11/03 07:14:19;;;;;;;9.70;4.80;;;;;;;16.54;63.92;97367.55;105157;1303;22727;-81
2022/11/03 07:16:53;;;;;;;9.90;5.00;;;;;;;16.61;63.60;97365.19;105075;1291;22472;-79
2022/11/03 07:19:27;;;;;;;8.10;4.40;;;;;;;16.93;63.45;97366.36;105124;1296;25264;-81
2022/11/03 07:22:01;;;;;;;6.50;4.30;;;;;;;17.19;61.73;97361.90;105133;1304;22470;-81
2022/11/03 07:24:39;;;;;;;8.80;5.30;;;;;;;17.09;60.35;97361.79;105092;1304;26125;-81
2022/11/03 07:27:20;;;;;;;10.80;4.70;;;;;;;17.21;60.87;97364.23;105039;1283;22471;-82
2022/11/03 07:29:54;;;;;;;8.70;4.40;;;;;;;17.66;60.88;97360.92;105016;1305;22491;-81
2022/11/03 07:32:29;;;;;;;8.30;4.60;;;;;;;18.33;60.07;97359.13;105058;1298;22488;-81
2022/11/03 07:35:04;;;;;;;9.10;4.70;;;;;;;18.49;58.56;97355.25;104959;1305;31320;-81
2022/11/03 07:37:36;;;;;;;10.60;4.40;;;;;;;18.60;57.41;97348.02;105143;1304;22504;-81
2022/11/03 07:40:16;;;;;;;9.00;4.40;;;;;;;18.92;56.92;97346.10;105154;1304;22486;-81
2022/11/03 07:42:48;;;;;;;8.50;4.40;;;;;;;19.36;56.10;97345.00;105140;1290;22470;-81
2022/11/03 07:45:37;;;;;;;10.30;4.60;;;;;;;19.58;55.25;97343.83;105039;1294;22477;-81
2022/11/03 07:48:18;;;;;;;10.40;4.70;;;;;;;19.82;53.82;97340.09;105151;1303;22935;-81
2022/11/03 07:50:51;;;;;;;9.30;5.20;;;;;;;19.41;52.66;97337.31;105133;1304;22479;-81
2022/11/03 07:53:30;;;;;;;8.30;4.40;;;;;;;19.17;52.71;97332.16;105100;1304;24273;-81
2022/11/03 07:56:02;;;;;;;9.40;5.00;;;;;;;18.94;52.62;97332.45;105097;1304;27763;-81
2022/11/03 07:58:38;;;;;;;8.40;3.90;;;;;;;19.08;52.97;97329.84;105102;1303;22520;-81
2022/11/03 08:01:28;;;;;;;9.40;4.70;;;;;;;19.16;52.33;97326.09;105122;1297;22479;-81
2022/11/03 08:04:05;;;;;;;12.10;4.80;;;;;;;18.77;52.11;97328.50;105135;1297;22502;-81
2022/11/03 08:06:36;;;;;;;11.80;4.60;;;;;;;19.00;52.50;97325.79;105041;1304;24352;-81
2022/11/03 08:09:08;;;;;;;8.30;4.10;;;;;;;19.13;52.04;97328.45;105121;1293;25313;-81
2022/11/03 08:11:42;;;;;;;8.10;4.30;;;;;;;19.05;52.11;97323.80;105100;1298;22485;-81
2022/11/03 08:14:13;;;;;;;9.50;4.60;;;;;;;18.92;51.50;97320.59;105115;1304;22478;-81
2022/11/03 08:16:45;;;;;;;8.90;4.20;;;;;;;18.65;51.94;97319.66;104974;1287;25339;-81
2022/11/03 08:19:16;;;;;;;9.20;4.60;;;;;;;18.50;51.88;97313.83;105031;1303;22488;-81
2022/11/03 08:21:47;;;;;;;9.00;4.30;;;;;;;18.35;52.35;97308.63;104981;1304;22480;-81
2022/11/03 08:24:18;;;;;;;8.60;4.10;;;;;;;18.11;52.09;97308.15;104976;1305;22460;-81
2022/11/03 08:26:49;;;;;;;10.70;4.30;;;;;;;17.44;51.60;97301.28;105025;1305;23401;-81
2022/11/03 08:29:21;;;;;;;8.30;3.90;;;;;;;17.01;52.81;97294.20;105145;1289;24343;-82
2022/11/03 08:31:52;;;;;;;8.70;3.60;;;;;;;16.70;52.86;97295.02;105069;1288;25417;-82
2022/11/03 08:34:23;;;;;;;8.70;3.50;;;;;;;16.29;53.40;97290.30;105069;1303;22621;-82
2022/11/03 08:36:54;;;;;;;8.80;3.50;;;;;;;16.15;54.13;97282.60;105017;1305;32804;-82
2022/11/03 08:39:27;;;;;;;10.70;3.70;;;;;;;15.92;53.71;97277.66;105011;1305;22476;-82
2022/11/03 08:41:58;;;;;;;9.60;3.60;;;;;;;15.42;54.62;97275.64;104970;1296;22478;-82
2022/11/03 08:44:30;;;;;;;7.20;3.00;;;;;;;15.35;55.13;97273.20;104961;1303;22496;-82
2022/11/03 08:47:01;;;;;;;8.50;3.10;;;;;;;15.17;54.85;97266.42;104967;1298;22467;-82
2022/11/03 08:49:32;;;;;;;7.70;2.70;;;;;;;14.99;54.93;97262.27;105002;1291;25466;-83
2022/11/03 08:52:03;;;;;;;7.00;2.50;;;;;;;14.76;55.29;97263.55;105012;1305;22467;-82
2022/11/03 08:54:34;;;;;;;8.00;3.00;;;;;;;14.62;55.56;97259.38;104961;1300;22490;-82
2022/11/03 08:57:06;;;;;;;7.90;3.20;;;;;;;14.52;55.97;97260.80;105058;1290;22469;-83
2022/11/03 08:59:37;;;;;;;5.10;3.00;;;;;;;14.35;55.89;97256.88;105065;1299;22462;-82
2022/11/03 09:02:08;;;;;;;8.00;3.20;;;;;;;14.20;56.09;97258.23;105085;1305;22511;-83
2022/11/03 09:17:05;;;;;;;8.50;3.00;;;;;;;14.46;56.01;97250.63;102554;1326;558387;-80
2022/11/03 09:19:37;;;;;;;6.70;3.20;;;;;;;14.57;56.22;97241.61;104253;1312;146772;-80
2022/11/03 09:22:08;;;;;;;8.20;3.40;;;;;;;14.41;55.91;97242.93;104589;1298;25306;-80
2022/11/03 09:24:39;;;;;;;5.30;2.80;;;;;;;14.32;56.23;97236.27;104583;1308;22495;-80
2022/11/03 09:27:10;;;;;;;6.60;2.80;;;;;;;14.37;56.62;97233.27;104555;1313;22483;-80
2022/11/03 09:29:44;;;;;;;9.20;3.10;;;;;;;14.46;56.03;97225.65;104684;1312;22481;-80
2022/11/03 09:32:15;;;;;;;5.30;2.90;;;;;;;14.41;56.17;97228.04;104799;1307;23839;-80
2022/11/03 09:34:46;;;;;;;7.60;2.60;;;;;;;14.45;55.79;97223.10;104825;1308;26447;-80
2022/11/03 09:37:17;;;;;;;7.10;3.10;;;;;;;14.28;55.63;97222.77;104799;1308;25330;-80
2022/11/03 09:39:48;;;;;;;6.30;2.70;;;;;;;14.16;55.84;97218.39;104938;1287;22488;-80
2022/11/03 09:42:20;;;;;;;10.00;3.00;;;;;;;14.24;56.05;97215.88;104927;1308;25298;-81
2022/11/03 09:44:53;;;;;;;8.10;2.70;;;;;;;14.21;55.96;97214.52;104940;1301;22488;-80
2022/11/03 09:47:33;;;;;;;9.10;2.90;;;;;;;14.28;55.48;97212.58;104899;1301;22472;-81
2022/11/03 09:50:05;;;;;;;8.10;3.50;;;;;;;14.15;55.46;97212.75;104846;1301;22516;-80
2022/11/03 09:52:38;;;;;;;10.10;3.50;;;;;;;14.21;55.94;97210.54;104843;1289;22620;-81
2022/11/03 09:55:15;;;;;;;7.70;3.40;;;;;;;14.26;56.01;97208.29;104801;1293;25466;-81
2022/11/03 09:57:47;;;;;;;7.90;3.30;;;;;;;14.32;55.50;97202.59;104794;1303;23931;-80
2022/11/03 10:00:22;;;;;;;6.90;3.00;;;;;;;14.34;55.32;97202.15;104800;1309;24301;-80
2022/11/03 10:02:54;;;;;;;7.70;3.70;;;;;;;14.40;55.70;97200.73;104845;1294;22475;-80
2022/11/03 10:05:27;;;;;;;7.90;4.00;;;;;;;14.54;56.03;97194.86;104827;1309;22473;-81
2022/11/03 10:08:01;;;;;;;7.50;3.80;;;;;;;14.48;55.28;97195.05;104861;1307;22482;-81
2022/11/03 10:10:34;;;;;;;6.70;3.20;;;;;;;14.55;56.20;97191.01;104989;1307;22468;-81
2022/11/03 10:13:11;;;;;;;8.70;3.80;;;;;;;14.61;55.46;97192.58;104968;1295;24935;-80
2022/11/03 10:15:42;;;;;;;7.60;3.30;;;;;;;14.54;55.81;97187.55;104968;1307;22471;-80
2022/11/03 10:18:14;;;;;;;9.90;3.30;;;;;;;14.51;55.39;97184.08;104854;1295;22486;-80
2022/11/03 10:20:46;;;;;;;7.90;3.40;;;;;;;14.48;55.00;97179.52;104803;1292;22512;-80
2022/11/03 10:23:17;;;;;;;6.30;3.10;;;;;;;14.49;55.22;97183.63;104778;1294;23197;-80
2022/11/03 10:25:48;;;;;;;8.00;2.90;;;;;;;14.47;55.13;97179.04;104817;1294;22517;-80
2022/11/03 10:28:22;;;;;;;8.20;3.20;;;;;;;14.47;55.07;97174.14;104741;1301;27942;-80
2022/11/03 10:30:56;;;;;;;6.30;2.80;;;;;;;14.48;54.77;97168.48;104843;1285;22481;-80
2022/11/03 10:33:32;;;;;;;8.20;3.30;;;;;;;14.45;54.42;97168.14;104811;1293;25495;-80
2022/11/03 10:36:21;;;;;;;6.30;3.10;;;;;;;14.39;54.51;97163.85;104809;1304;25378;-81
2022/11/03 10:38:53;;;;;;;6.20;3.00;;;;;;;14.38;54.54;97163.06;104888;1300;27784;-81
2022/11/03 10:41:26;;;;;;;7.10;2.70;;;;;;;14.35;54.35;97159.03;104943;1297;22457;-80
2022/11/03 10:44:16;;;;;;;9.90;2.90;;;;;;;14.36;54.47;97153.63;104957;1297;24127;-80
2022/11/03 10:46:58;;;;;;;4.90;2.60;;;;;;;14.58;55.17;97150.30;104953;1289;22497;-80
2022/11/03 10:49:32;;;;;;;5.80;3.00;;;;;;;14.82;55.07;97149.48;104776;1295;22470;-81
2022/11/03 10:52:16;;;;;;;5.10;2.60;;;;;;;14.90;54.40;97144.29;104843;1295;22553;-81
2022/11/03 10:54:48;;;;;;;4.10;2.40;;;;;;;14.96;54.04;97141.05;104793;1306;22502;-80
2022/11/03 10:57:23;;;;;;;6.10;2.50;;;;;;;15.10;53.13;97135.40;104793;1291;23858;-80
2022/11/03 10:59:56;;;;;;;6.00;2.60;;;;;;;15.20;52.32;97127.86;104788;1294;22483;-80
2022/11/03 11:02:35;;;;;;;6.30;2.80;;;;;;;15.06;51.24;97119.55;104806;1286;22547;-80
2022/11/03 11:05:17;;;;;;;6.80;2.70;;;;;;;15.00;50.75;97117.00;104827;1294;22453;-80
2022/11/03 11:07:50;;;;;;;5.60;2.40;;;;;;;14.91;51.05;97112.19;104856;1297;22466;-80
2022/11/03 11:10:23;;;;;;;7.80;3.10;;;;;;;14.90;50.71;97107.76;104933;1301;22473;-80
2022/11/03 11:13:27;;;;;;;5.50;2.90;;;;;;;14.94;51.74;97101.34;104938;1292;25241;-81
2022/11/03 11:16:00;;;;;;;6.70;2.50;;;;;;;15.11;51.78;97094.63;104968;1290;24226;-81
2022/11/03 11:19:11;;;;;;;5.90;3.10;;;;;;;14.95;50.79;97093.09;104794;1300;27617;-81
2022/11/03 11:22:22;;;;;;;8.70;3.30;;;;;;;14.70;51.76;97083.65;104817;1298;22493;-81
2022/11/03 11:25:02;;;;;;;6.30;3.10;;;;;;;14.83;52.24;97077.52;104811;1304;22481;-81
2022/11/03 11:28:00;;;;;;;6.00;3.20;;;;;;;14.92;52.25;97071.85;104846;1308;24298;-80
2022/11/03 11:31:25;;;;;;;7.00;3.30;;;;;;;15.07;52.32;97066.57;104787;1307;22465;-80
2022/11/03 11:34:26;;;;;;;6.50;3.10;;;;;;;15.27;52.98;97057.42;104948;1306;22460;-81
2022/11/03 11:37:27;;;;;;;5.70;3.10;;;;;;;15.40;52.90;97058.61;104965;1285;22467;-81
2022/11/03 11:39:59;;;;;;;5.80;3.50;;;;;;;15.26;51.81;97046.71;104926;1294;23306;-82
2022/11/03 11:42:30;;;;;;;7.70;3.70;;;;;;;15.00;51.76;97045.93;104945;1292;22478;-81
2022/11/03 11:45:06;;;;;;;7.60;3.20;;;;;;;14.91;52.44;97041.91;104971;1297;22735;-81
2022/11/03 11:47:52;;;;;;;6.40;3.30;;;;;;;15.02;52.35;97037.49;104963;1307;22462;-80
2022/11/03 11:50:34;;;;;;;6.20;3.00;;;;;;;15.15;53.26;97033.56;104983;1291;22479;-80
2022/11/03 11:53:15;;;;;;;6.20;3.90;;;;;;;15.32;52.73;97032.05;104975;1307;22473;-80
2022/11/03 11:55:58;;;;;;;5.90;3.30;;;;;;;15.46;53.33;97022.63;105021;1291;22475;-80
2022/11/03 11:58:37;;;;;;;6.70;3.50;;;;;;;15.70;53.26;97018.77;104931;1302;22472;-80
2022/11/03 12:01:24;;;;;;;8.20;3.50;;;;;;;15.77;52.41;97011.91;104916;1294;22465;-80
2022/11/03 12:03:57;;;;;;;6.00;3.30;;;;;;;15.63;52.01;97008.99;104927;1309;22483;-80
2022/11/03 12:06:39;;;;;;;6.40;3.30;;;;;;;15.58;51.74;97001.70;104959;1301;22488;-80
2022/11/03 12:09:17;;;;;;;4.60;3.10;;;;;;;15.43;51.54;96996.10;104818;1293;22635;-80
2022/11/03 12:11:50;;;;;;;7.80;3.70;;;;;;;15.42;51.99;96994.55;104802;1302;22543;-80
2022/11/03 12:14:34;;;;;;;7.40;3.50;;;;;;;15.52;52.18;96989.80;104829;1309;25827;-80
2022/11/03 12:17:36;;;;;;;6.30;3.10;;;;;;;15.51;52.30;96984.86;104764;1287;22457;-78
2022/11/03 12:23:45;;;;;;;6.60;3.70;;;;;;;15.30;50.89;96977.48;101916;1336;546247;-81
2022/11/03 12:26:39;;;;;;;7.40;4.00;;;;;;;15.29;52.22;96970.78;104607;1308;22506;-81
2022/11/03 12:29:10;;;;;;;5.60;3.60;;;;;;;15.39;51.44;96968.49;104576;1313;22497;-81
2022/11/03 12:31:41;;;;;;;8.70;3.90;;;;;;;15.48;52.57;96962.48;104617;1305;22471;-80
2022/11/03 12:34:12;;;;;;;6.40;3.40;;;;;;;15.70;52.38;96955.96;104846;1310;22481;-80
2022/11/03 12:36:44;;;;;;;8.00;4.20;;;;;;;15.77;52.22;96952.75;104814;1307;145739;-80